In Rescue
 
Open Full Screen Window  High Contrast Mode
Wind Gusting 00 knots
04
September 19, 2019 5:21 PM EDT
Weather Information
Wind Direction
  240 °
Wind Speed
  04 kt (5 mph)
Wind Gust
  00 kt (0 mph)
Altimeter
30.07 in
Visibility
10 SM
Temperature
23° C
73° F
Dewpoint
16° C
61° F
Humidity
65%
Sky Condition
Clear
VFR

METAR KMGN 192121Z AUTO 24004KT 10SM CLR 23/16 A3007 RMK AO2 T02410159

FAA Disclaimer: The data displayed is for advisory purposes only and is not to be used for flight planning or operations.